Time;durP1;ratioP1;P1;durP2;ratioP2;P2;SDS_P1;SDS_P2;PMS_P1;PMS_P2;Temp;Humidity;BMP_temperature;BMP_pressure;BME280_temperature;BME280_humidity;BME280_pressure;Samples;Min_cycle;Max_cycle;Signal;HPM_P1;HPM_P2
2022/02/26 00:02:24;;;;;;;4.40;2.03;;;21.20;50.70;;;;;;5030990;28;86223;-73
2022/02/26 00:04:50;;;;;;;4.00;2.33;;;21.20;50.60;;;;;;5032263;28;86274;-77
2022/02/26 00:07:16;;;;;;;4.72;2.20;;;21.20;50.70;;;;;;5014199;28;88650;-73
2022/02/26 00:09:42;;;;;;;3.33;1.80;;;21.20;50.70;;;;;;5033205;28;85523;-74
2022/02/26 00:12:08;;;;;;;4.38;2.25;;;21.20;50.70;;;;;;5033329;28;86543;-73
2022/02/26 00:14:34;;;;;;;3.72;2.00;;;21.20;50.40;;;;;;5032369;28;86919;-76
2022/02/26 00:17:00;;;;;;;5.75;2.10;;;21.10;50.30;;;;;;5032233;28;86261;-74
2022/02/26 00:19:26;;;;;;;4.15;1.65;;;21.20;50.20;;;;;;5032826;28;86233;-73
2022/02/26 00:21:52;;;;;;;3.65;2.33;;;21.10;50.30;;;;;;5032112;28;86285;-74
2022/02/26 00:24:17;;;;;;;4.60;2.15;;;21.10;50.20;;;;;;5031727;28;87669;-73
2022/02/26 00:26:43;;;;;;;4.00;2.10;;;21.10;50.20;;;;;;5031765;28;86188;-75
2022/02/26 00:29:09;;;;;;;3.05;1.90;;;21.10;50.20;;;;;;5032580;28;86529;-73
2022/02/26 00:31:35;;;;;;;3.85;2.15;;;21.10;50.20;;;;;;5032424;28;86377;-73
2022/02/26 00:34:01;;;;;;;3.22;1.90;;;21.10;50.30;;;;;;5031375;28;87180;-74
2022/02/26 00:36:26;;;;;;;3.58;2.05;;;21.10;50.10;;;;;;5031538;28;86722;-74
2022/02/26 00:38:54;;;;;;;4.10;1.88;;;21.10;50.20;;;;;;5029337;28;86177;-75
2022/02/26 00:41:19;;;;;;;3.38;2.08;;;21.10;50.20;;;;;;5030643;28;86644;-76
2022/02/26 00:43:45;;;;;;;4.45;2.03;;;21.10;50.10;;;;;;5031553;28;87109;-74
2022/02/26 00:46:11;;;;;;;4.43;2.10;;;21.00;50.10;;;;;;5032094;28;87009;-75
2022/02/26 00:51:21;;;;;;;4.03;2.13;;;21.10;50.10;;;;;;5030319;27;85713;-74
2022/02/26 00:53:47;;;;;;;3.75;1.75;;;21.00;50.10;;;;;;5032432;28;86541;-74
2022/02/26 00:56:13;;;;;;;4.20;2.03;;;21.00;50.00;;;;;;5031581;28;86348;-73
2022/02/26 00:58:38;;;;;;;4.57;2.22;;;21.00;49.90;;;;;;5032101;28;86804;-74
2022/02/26 01:01:04;;;;;;;3.97;2.10;;;21.00;49.90;;;;;;5030972;28;86054;-74
2022/02/26 01:03:30;;;;;;;3.45;1.95;;;21.00;49.90;;;;;;5031623;28;86773;-74
2022/02/26 01:05:55;;;;;;;4.65;2.35;;;21.00;49.90;;;;;;5031767;28;86384;-76
2022/02/26 01:08:21;;;;;;;4.38;2.22;;;21.00;49.90;;;;;;5031941;28;86893;-74
2022/02/26 01:10:47;;;;;;;3.47;2.20;;;21.00;49.90;;;;;;5031429;28;86028;-75
2022/02/26 01:13:12;;;;;;;3.28;2.10;;;21.00;49.80;;;;;;5012206;28;87413;-74
2022/02/26 01:15:38;;;;;;;3.95;2.13;;;21.00;49.90;;;;;;5031083;28;86727;-73
2022/02/26 01:18:04;;;;;;;4.68;2.20;;;21.00;49.80;;;;;;5031868;28;86192;-74
2022/02/26 01:20:29;;;;;;;4.85;2.33;;;20.90;49.70;;;;;;5031501;28;86837;-75
2022/02/26 01:22:55;;;;;;;3.40;2.33;;;20.90;49.80;;;;;;5032268;28;86802;-73
2022/02/26 01:25:22;;;;;;;4.40;2.38;;;20.90;49.60;;;;;;5031522;28;87071;-73
2022/02/26 01:27:48;;;;;;;3.60;2.28;;;20.90;49.60;;;;;;5031111;28;86005;-74
2022/02/26 01:30:13;;;;;;;3.15;1.92;;;20.90;49.70;;;;;;5031586;28;85963;-74
2022/02/26 01:32:42;;;;;;;3.55;1.85;;;20.90;49.60;;;;;;5013446;28;87999;-74
2022/02/26 01:35:09;;;;;;;5.07;2.38;;;20.90;49.60;;;;;;5032403;28;85840;-74
2022/02/26 01:37:35;;;;;;;3.75;2.00;;;20.90;49.60;;;;;;5031418;28;85958;-74
2022/02/26 01:40:01;;;;;;;3.38;2.00;;;20.90;49.70;;;;;;5032438;28;86618;-74
2022/02/26 01:42:26;;;;;;;3.78;2.08;;;20.80;49.50;;;;;;5030847;28;86476;-74
2022/02/26 01:44:53;;;;;;;3.25;1.88;;;20.80;49.60;;;;;;5032329;28;86406;-74
2022/02/26 01:47:20;;;;;;;5.72;2.50;;;20.80;49.50;;;;;;5030364;28;86156;-74
2022/02/26 01:49:46;;;;;;;3.67;1.90;;;20.80;49.50;;;;;;5031146;28;86193;-74
2022/02/26 01:52:13;;;;;;;3.50;2.33;;;20.80;49.50;;;;;;5030998;28;86862;-76
2022/02/26 01:54:39;;;;;;;3.85;2.35;;;20.90;49.60;;;;;;5031268;28;86442;-74
2022/02/26 01:57:05;;;;;;;3.95;2.30;;;20.80;49.50;;;;;;5031343;28;86103;-74
2022/02/26 01:59:31;;;;;;;3.47;2.03;;;20.80;49.50;;;;;;5031184;28;86156;-75
2022/02/26 02:01:57;;;;;;;4.63;2.20;;;20.80;49.50;;;;;;5030688;27;86774;-74
2022/02/26 02:04:23;;;;;;;4.32;1.90;;;20.80;49.40;;;;;;5011167;28;87005;-73
2022/02/26 02:06:48;;;;;;;3.08;2.15;;;20.80;49.40;;;;;;5031951;28;86265;-73
2022/02/26 02:09:14;;;;;;;4.10;2.15;;;20.80;49.30;;;;;;5031630;28;86636;-73
2022/02/26 02:11:40;;;;;;;4.28;2.08;;;20.80;49.30;;;;;;5030726;28;86930;-73
2022/02/26 02:14:06;;;;;;;4.38;2.38;;;20.80;49.40;;;;;;5045200;27;87708;-74
2022/02/26 02:16:35;;;;;;;3.47;2.00;;;20.80;49.20;;;;;;5030864;28;86098;-73
2022/02/26 02:19:07;;;;;;;4.47;2.20;;;20.80;49.30;;;;;;5028923;28;85685;-75
2022/02/26 02:21:33;;;;;;;3.72;2.30;;;20.80;49.30;;;;;;5030018;28;86027;-73
2022/02/26 02:23:59;;;;;;;3.25;2.00;;;20.80;49.30;;;;;;5030478;28;86912;-75
2022/02/26 02:26:27;;;;;;;3.50;1.80;;;20.80;49.30;;;;;;5028252;28;86200;-73
2022/02/26 02:28:52;;;;;;;4.45;2.25;;;20.70;49.10;;;;;;5029639;28;86996;-73
2022/02/26 02:31:18;;;;;;;3.95;2.22;;;20.70;49.20;;;;;;5031067;28;86277;-73
2022/02/26 02:33:46;;;;;;;3.08;2.13;;;20.70;49.00;;;;;;5030170;28;85900;-73
2022/02/26 02:36:12;;;;;;;3.17;1.92;;;20.70;49.10;;;;;;5029950;28;86501;-73
2022/02/26 02:38:38;;;;;;;4.28;2.33;;;20.70;49.00;;;;;;5029617;28;86287;-75
2022/02/26 02:41:05;;;;;;;3.60;2.03;;;20.70;49.10;;;;;;5030225;28;86918;-74
2022/02/26 02:43:31;;;;;;;3.53;2.00;;;20.70;49.20;;;;;;5030236;28;87052;-74
2022/02/26 02:45:58;;;;;;;4.90;2.40;;;20.70;49.10;;;;;;5029630;28;85575;-74
2022/02/26 02:48:24;;;;;;;3.97;2.40;;;20.70;49.20;;;;;;5029605;28;86208;-73
2022/02/26 02:50:49;;;;;;;4.63;2.33;;;20.70;49.00;;;;;;5029403;28;86335;-74
2022/02/26 02:53:18;;;;;;;4.88;2.20;;;20.70;48.90;;;;;;5030135;28;86758;-74
2022/02/26 02:55:45;;;;;;;4.20;2.17;;;20.70;49.00;;;;;;5029106;28;86698;-73
2022/02/26 02:58:11;;;;;;;3.00;1.75;;;20.70;48.90;;;;;;5029228;28;85707;-74
2022/02/26 03:00:37;;;;;;;3.60;2.22;;;20.60;49.00;;;;;;5029672;28;86512;-74
2022/02/26 03:03:02;;;;;;;4.45;2.20;;;20.60;49.00;;;;;;5029695;28;86792;-73
2022/02/26 03:05:28;;;;;;;4.25;2.20;;;20.60;48.80;;;;;;5029133;28;86451;-73
2022/02/26 03:07:54;;;;;;;3.90;2.20;;;20.60;48.90;;;;;;5029229;28;87009;-73
2022/02/26 03:10:20;;;;;;;4.35;2.22;;;20.60;48.80;;;;;;5029374;28;86983;-73
2022/02/26 03:12:51;;;;;;;3.47;2.28;;;20.60;48.90;;;;;;5011778;28;86572;-73
2022/02/26 03:15:18;;;;;;;3.85;2.10;;;20.60;48.80;;;;;;5033112;28;86268;-74
2022/02/26 03:17:43;;;;;;;4.50;2.28;;;20.60;48.80;;;;;;5033369;28;86591;-73
2022/02/26 03:20:09;;;;;;;3.08;2.03;;;20.60;48.80;;;;;;5033030;28;86890;-74
2022/02/26 03:22:35;;;;;;;3.78;2.55;;;20.60;48.70;;;;;;5015218;28;87965;-75
2022/02/26 03:25:00;;;;;;;3.85;2.13;;;20.50;48.60;;;;;;5032841;28;86212;-74
2022/02/26 03:27:26;;;;;;;3.95;2.40;;;20.60;48.70;;;;;;5032489;28;87114;-75
2022/02/26 03:29:52;;;;;;;3.65;1.73;;;20.60;48.60;;;;;;5032872;28;88472;-74
2022/02/26 03:32:18;;;;;;;3.92;2.03;;;20.60;48.70;;;;;;5032271;28;86334;-74
2022/02/26 03:34:43;;;;;;;3.00;2.08;;;20.60;48.60;;;;;;5032585;28;85650;-74
2022/02/26 03:37:11;;;;;;;3.83;2.08;;;20.50;48.60;;;;;;5031960;28;85955;-74
2022/02/26 03:39:36;;;;;;;4.38;2.38;;;20.50;48.50;;;;;;5032552;28;86720;-75
2022/02/26 03:42:04;;;;;;;3.85;2.20;;;20.50;48.50;;;;;;5033038;28;86286;-74
2022/02/26 03:44:31;;;;;;;3.53;2.28;;;20.50;48.40;;;;;;5033730;28;86535;-74
2022/02/26 03:46:58;;;;;;;4.70;2.17;;;20.50;48.60;;;;;;5032752;28;86621;-73
2022/02/26 03:49:24;;;;;;;2.53;1.83;;;20.50;48.40;;;;;;5032824;28;87040;-73
2022/02/26 03:51:49;;;;;;;3.05;2.13;;;20.50;48.80;;;;;;5032124;28;86098;-73
2022/02/26 03:54:15;;;;;;;3.88;2.17;;;20.50;48.40;;;;;;5032809;28;85922;-73
2022/02/26 03:56:41;;;;;;;4.05;2.30;;;20.50;48.40;;;;;;5047905;27;86413;-73
2022/02/26 03:59:07;;;;;;;3.88;2.10;;;20.50;48.40;;;;;;5031512;28;86486;-73
2022/02/26 04:01:32;;;;;;;3.47;2.08;;;20.40;48.40;;;;;;5032714;28;86866;-75
2022/02/26 04:03:58;;;;;;;3.90;2.38;;;20.40;48.40;;;;;;5032655;28;85753;-74
2022/02/26 04:06:24;;;;;;;3.00;2.00;;;20.40;48.40;;;;;;5032618;28;85694;-74
2022/02/26 04:08:49;;;;;;;4.53;2.35;;;20.40;48.30;;;;;;5032806;28;89806;-73
2022/02/26 04:11:15;;;;;;;4.72;2.58;;;20.40;48.20;;;;;;5032364;28;86742;-74
2022/02/26 04:13:41;;;;;;;3.45;2.10;;;20.40;48.40;;;;;;5033127;28;85631;-74
2022/02/26 04:16:07;;;;;;;3.58;2.20;;;20.40;48.30;;;;;;5031609;28;85576;-74
2022/02/26 04:18:33;;;;;;;4.30;2.35;;;20.40;48.20;;;;;;5033343;28;86798;-74
2022/02/26 04:20:59;;;;;;;3.15;1.90;;;20.40;48.30;;;;;;5032023;28;86435;-73
2022/02/26 04:23:24;;;;;;;4.15;2.08;;;20.40;48.20;;;;;;5032733;28;86936;-74
2022/02/26 04:25:50;;;;;;;3.67;2.28;;;20.40;48.10;;;;;;5033182;27;85801;-75
2022/02/26 04:28:16;;;;;;;3.28;2.30;;;20.40;48.20;;;;;;5031808;28;87182;-73
2022/02/26 04:30:41;;;;;;;2.65;1.75;;;20.40;48.10;;;;;;5032890;28;86511;-74
2022/02/26 04:33:10;;;;;;;3.47;2.10;;;20.40;48.00;;;;;;5032444;28;86847;-73
2022/02/26 04:35:36;;;;;;;2.93;1.90;;;20.40;47.90;;;;;;5032139;28;86115;-73
2022/02/26 04:38:03;;;;;;;3.47;2.10;;;20.30;48.00;;;;;;5031907;28;86714;-74
2022/02/26 04:40:29;;;;;;;3.85;2.20;;;20.30;48.00;;;;;;5031651;28;86790;-74
2022/02/26 04:42:54;;;;;;;3.38;2.25;;;20.30;48.10;;;;;;5032054;28;86863;-72
2022/02/26 04:45:20;;;;;;;4.50;2.08;;;20.30;48.10;;;;;;5032208;28;85693;-73
2022/02/26 04:47:46;;;;;;;3.22;2.00;;;20.30;48.10;;;;;;5032358;28;87223;-73
2022/02/26 04:50:14;;;;;;;4.55;2.58;;;20.30;48.10;;;;;;5031398;28;86633;-75
2022/02/26 04:52:41;;;;;;;2.72;2.08;;;20.30;48.00;;;;;;5031481;28;86648;-73
2022/02/26 04:55:08;;;;;;;3.47;1.98;;;20.30;48.10;;;;;;5032208;28;86107;-73
2022/02/26 04:57:34;;;;;;;3.85;2.22;;;20.30;48.30;;;;;;5030241;28;88210;-74
2022/02/26 04:59:59;;;;;;;3.17;2.22;;;20.30;48.00;;;;;;5030759;28;86286;-73
2022/02/26 05:02:25;;;;;;;3.08;2.10;;;20.30;48.10;;;;;;5031520;28;86062;-74
2022/02/26 05:04:50;;;;;;;3.45;2.28;;;20.30;48.10;;;;;;5031640;28;86119;-74
2022/02/26 05:07:16;;;;;;;2.75;2.00;;;20.30;48.00;;;;;;5031826;28;87354;-73
2022/02/26 05:09:42;;;;;;;3.50;2.28;;;20.30;48.00;;;;;;5031463;28;86638;-73
2022/02/26 05:12:09;;;;;;;3.50;2.10;;;20.30;48.00;;;;;;5030626;28;86390;-73
2022/02/26 05:14:35;;;;;;;3.97;2.30;;;20.20;47.90;;;;;;5030774;28;86804;-73
2022/02/26 05:17:01;;;;;;;2.85;2.10;;;20.30;48.00;;;;;;5031356;28;86530;-75
2022/02/26 05:19:26;;;;;;;3.65;2.40;;;20.20;47.80;;;;;;5031319;28;87027;-73
2022/02/26 05:21:52;;;;;;;2.70;2.00;;;20.20;47.70;;;;;;5031569;28;86111;-74
2022/02/26 05:24:18;;;;;;;3.20;2.05;;;20.20;47.70;;;;;;5031567;28;85844;-74
2022/02/26 05:26:44;;;;;;;3.28;2.10;;;20.20;47.80;;;;;;5031342;28;86221;-73
2022/02/26 05:29:09;;;;;;;3.85;2.20;;;20.20;47.70;;;;;;5030898;28;86248;-73
2022/02/26 05:31:36;;;;;;;3.42;2.15;;;20.20;47.70;;;;;;5031260;28;86098;-73
2022/02/26 05:34:02;;;;;;;3.05;2.10;;;20.20;47.70;;;;;;5030838;28;85723;-74
2022/02/26 05:36:27;;;;;;;3.13;2.10;;;20.20;47.70;;;;;;5029680;27;86977;-73
2022/02/26 05:38:53;;;;;;;2.75;2.05;;;20.20;47.70;;;;;;5011378;28;86978;-73
2022/02/26 05:41:19;;;;;;;3.05;1.95;;;20.10;47.70;;;;;;5030096;28;87051;-74
2022/02/26 05:43:45;;;;;;;3.20;2.00;;;20.20;47.70;;;;;;5031059;28;86674;-73
2022/02/26 05:46:10;;;;;;;2.53;2.05;;;20.10;47.60;;;;;;5030487;28;87511;-73
2022/02/26 05:48:36;;;;;;;3.17;2.00;;;20.10;47.50;;;;;;5031576;28;87635;-73
2022/02/26 05:51:02;;;;;;;3.80;2.00;;;20.10;47.40;;;;;;5030451;28;87025;-73
2022/02/26 05:53:28;;;;;;;3.75;2.13;;;20.10;47.50;;;;;;5031533;28;86659;-76
2022/02/26 05:55:54;;;;;;;3.80;2.35;;;20.10;47.70;;;;;;5030551;28;86576;-73
2022/02/26 05:58:21;;;;;;;3.00;2.00;;;20.10;47.70;;;;;;5029550;28;86331;-73
2022/02/26 06:00:48;;;;;;;4.15;2.08;;;20.10;47.80;;;;;;5045619;27;86825;-73
2022/02/26 06:03:14;;;;;;;3.95;2.30;;;20.10;47.90;;;;;;5030877;28;86855;-73
2022/02/26 06:05:40;;;;;;;3.05;2.15;;;20.10;47.90;;;;;;5030036;28;86208;-74
2022/02/26 06:08:06;;;;;;;4.25;2.35;;;20.10;47.70;;;;;;5030675;28;86593;-74
2022/02/26 06:10:32;;;;;;;4.18;1.83;;;20.10;47.70;;;;;;5030515;28;86522;-73
2022/02/26 06:12:57;;;;;;;3.30;2.08;;;20.10;47.70;;;;;;5031282;28;86346;-75
2022/02/26 06:15:25;;;;;;;3.78;2.20;;;20.10;47.80;;;;;;5031105;28;86946;-73
2022/02/26 06:17:50;;;;;;;2.83;2.05;;;20.00;47.70;;;;;;5029962;28;86344;-75
2022/02/26 06:20:16;;;;;;;3.33;2.22;;;20.00;47.50;;;;;;5029044;28;86856;-74
2022/02/26 06:22:42;;;;;;;4.15;2.15;;;20.00;47.60;;;;;;5030121;28;86068;-74
2022/02/26 06:25:08;;;;;;;4.60;2.33;;;20.00;47.70;;;;;;5030268;28;86869;-74
2022/02/26 06:27:38;;;;;;;3.75;2.30;;;20.00;47.60;;;;;;5028862;28;86525;-74
2022/02/26 06:30:05;;;;;;;4.03;2.53;;;20.00;47.50;;;;;;5029407;28;87052;-74
2022/02/26 06:32:31;;;;;;;3.83;2.45;;;20.00;47.50;;;;;;5030447;28;86562;-74
2022/02/26 06:34:56;;;;;;;2.83;2.00;;;20.00;47.60;;;;;;5027628;28;86847;-74
2022/02/26 06:37:22;;;;;;;3.17;2.10;;;20.00;47.60;;;;;;5030459;28;86792;-73
2022/02/26 06:39:48;;;;;;;3.03;1.80;;;20.00;47.50;;;;;;5029451;28;85963;-73
2022/02/26 06:42:14;;;;;;;2.92;2.10;;;20.00;47.40;;;;;;5029808;28;86460;-73
2022/02/26 06:44:39;;;;;;;3.25;2.00;;;20.00;47.60;;;;;;5029167;28;86397;-73
2022/02/26 06:47:05;;;;;;;3.60;2.30;;;19.90;47.40;;;;;;5029187;27;86522;-74
2022/02/26 06:49:31;;;;;;;3.53;2.10;;;20.00;47.50;;;;;;5032729;28;86505;-73
2022/02/26 06:51:57;;;;;;;5.45;2.42;;;19.90;47.50;;;;;;5033073;28;86419;-74
2022/02/26 06:54:23;;;;;;;3.63;2.33;;;19.90;47.40;;;;;;5033444;28;86825;-74
2022/02/26 06:56:49;;;;;;;4.70;2.65;;;20.00;47.30;;;;;;5032657;28;86758;-73
2022/02/26 06:59:14;;;;;;;4.18;2.47;;;19.90;47.40;;;;;;5033256;28;86996;-75
2022/02/26 07:01:41;;;;;;;2.65;1.98;;;19.90;47.40;;;;;;5033722;28;86660;-73
2022/02/26 07:04:07;;;;;;;3.28;2.28;;;19.90;47.20;;;;;;5032821;28;86356;-73
2022/02/26 07:06:33;;;;;;;10.85;2.15;;;19.90;47.30;;;;;;5033429;28;86095;-75
2022/02/26 07:08:58;;;;;;;6.63;2.30;;;19.90;47.20;;;;;;5032942;28;86781;-73
2022/02/26 07:11:24;;;;;;;3.38;2.22;;;19.90;47.30;;;;;;5031983;28;86797;-75
2022/02/26 07:13:50;;;;;;;4.00;2.40;;;19.90;47.20;;;;;;5032370;28;85942;-74
2022/02/26 07:16:16;;;;;;;4.70;2.33;;;19.90;47.40;;;;;;5032091;28;86197;-73
2022/02/26 07:18:42;;;;;;;4.85;2.22;;;20.00;47.40;;;;;;5033331;28;86711;-72
2022/02/26 07:21:07;;;;;;;4.25;2.20;;;20.00;48.00;;;;;;5033366;28;85520;-71
2022/02/26 07:23:33;;;;;;;4.03;2.22;;;20.10;47.90;;;;;;5048379;27;88112;-75
2022/02/26 07:26:00;;;;;;;4.28;2.38;;;20.20;48.00;;;;;;5036693;28;86503;-74
2022/02/26 07:28:25;;;;;;;4.82;2.40;;;20.20;48.10;;;;;;5033080;28;85680;-73
2022/02/26 07:30:52;;;;;;;6.25;2.80;;;20.20;48.40;;;;;;5032985;28;86337;-74
2022/02/26 07:33:19;;;;;;;5.80;3.05;;;20.30;48.50;;;;;;5032869;28;87903;-75
2022/02/26 07:35:44;;;;;;;8.95;2.83;;;20.40;49.00;;;;;;5032344;28;86298;-75
2022/02/26 07:38:10;;;;;;;6.45;3.08;;;20.40;48.50;;;;;;5033496;28;86792;-73
2022/02/26 07:40:41;;;;;;;4.75;2.78;;;20.40;48.50;;;;;;5032290;28;85654;-72
2022/02/26 07:43:07;;;;;;;15.48;3.05;;;20.40;48.70;;;;;;5033171;28;86319;-73
2022/02/26 07:45:32;;;;;;;6.90;2.83;;;20.40;48.40;;;;;;5033368;28;86672;-72
2022/02/26 07:47:58;;;;;;;4.95;2.60;;;20.50;48.70;;;;;;5032650;28;86355;-73
2022/02/26 07:50:24;;;;;;;6.78;2.95;;;20.50;48.90;;;;;;5031916;28;86134;-72
2022/02/26 07:52:49;;;;;;;7.65;2.85;;;20.50;49.00;;;;;;5032527;28;87520;-72
2022/02/26 07:55:15;;;;;;;5.40;2.35;;;20.50;48.90;;;;;;5031250;28;86389;-74
2022/02/26 07:57:41;;;;;;;4.85;2.35;;;20.50;49.00;;;;;;5033445;28;85760;-71
2022/02/26 08:00:08;;;;;;;5.30;2.40;;;20.50;49.20;;;;;;5032602;27;86914;-71
2022/02/26 08:02:33;;;;;;;3.85;2.72;;;20.50;49.30;;;;;;5013592;28;87284;-70
2022/02/26 08:04:59;;;;;;;7.00;2.50;;;20.50;49.10;;;;;;5032384;28;85845;-71
2022/02/26 08:07:25;;;;;;;6.55;2.63;;;20.50;49.30;;;;;;5031378;28;85769;-70
2022/02/26 08:09:50;;;;;;;4.95;2.55;;;20.50;49.30;;;;;;5033286;28;85841;-73
2022/02/26 08:12:16;;;;;;;8.20;2.72;;;20.50;49.30;;;;;;5030736;28;86018;-73
2022/02/26 08:14:42;;;;;;;5.47;2.72;;;20.50;49.40;;;;;;5030691;28;86299;-74
2022/02/26 08:17:08;;;;;;;7.90;2.38;;;20.50;49.10;;;;;;5032138;28;85998;-72
2022/02/26 08:19:33;;;;;;;7.53;2.80;;;20.60;49.20;;;;;;5032959;28;86521;-74
2022/02/26 08:21:59;;;;;;;4.85;2.60;;;20.50;49.30;;;;;;5032870;28;86830;-75
2022/02/26 08:24:25;;;;;;;9.77;2.42;;;20.60;49.50;;;;;;5023297;28;86593;-74
2022/02/26 08:26:51;;;;;;;8.35;2.75;;;20.60;49.40;;;;;;5030761;28;86508;-73
2022/02/26 08:29:16;;;;;;;8.57;2.67;;;20.60;49.30;;;;;;5030346;28;85785;-73
2022/02/26 08:31:43;;;;;;;8.32;2.78;;;20.60;49.30;;;;;;5031717;28;86206;-73
2022/02/26 08:34:09;;;;;;;33.05;7.07;;;20.60;49.50;;;;;;5030611;28;86527;-74
2022/02/26 08:36:35;;;;;;;25.02;5.28;;;20.70;48.60;;;;;;5031200;28;86495;-76
2022/02/26 08:39:02;;;;;;;21.83;4.78;;;20.70;49.20;;;;;;5013709;28;85912;-73
2022/02/26 08:41:28;;;;;;;24.88;4.57;;;20.70;49.20;;;;;;5031620;28;87237;-71
2022/02/26 08:43:54;;;;;;;12.43;4.25;;;20.70;49.10;;;;;;5030167;28;86620;-72
2022/02/26 08:46:19;;;;;;;13.30;4.68;;;20.70;49.60;;;;;;5029883;28;86904;-74
2022/02/26 08:48:45;;;;;;;19.38;4.57;;;20.70;49.40;;;;;;5029970;28;86703;-74
2022/02/26 08:51:11;;;;;;;20.15;4.97;;;20.70;49.30;;;;;;4952071;28;89338;-72
2022/02/26 08:53:36;;;;;;;18.38;4.60;;;20.70;49.30;;;;;;4969619;28;86860;-72
2022/02/26 08:56:02;;;;;;;14.95;5.28;;;20.70;49.60;;;;;;4968056;28;85675;-71
2022/02/26 08:58:28;;;;;;;21.98;5.45;;;20.70;49.20;;;;;;4969569;28;86053;-71
2022/02/26 09:00:54;;;;;;;19.35;5.75;;;20.70;49.10;;;;;;4970574;28;86953;-72
2022/02/26 09:03:20;;;;;;;20.77;5.88;;;20.70;48.30;;;;;;4971007;28;86305;-71
2022/02/26 09:05:45;;;;;;;24.90;6.68;;;20.70;49.10;;;;;;4969963;28;86326;-71
2022/02/26 09:08:11;;;;;;;21.52;5.50;;;20.70;48.70;;;;;;4971362;28;86472;-69
2022/02/26 09:10:37;;;;;;;19.08;5.47;;;20.70;49.20;;;;;;4970289;28;86997;-70
2022/02/26 09:13:02;;;;;;;21.55;5.53;;;20.70;49.40;;;;;;4969603;28;86771;-70
2022/02/26 09:15:28;;;;;;;17.95;6.00;;;20.70;49.60;;;;;;4968593;28;86405;-71
2022/02/26 09:17:55;;;;;;;19.88;5.78;;;20.70;48.80;;;;;;4971365;28;86108;-71
2022/02/26 09:20:21;;;;;;;18.33;6.15;;;20.70;48.70;;;;;;4970058;28;86366;-70
2022/02/26 09:22:47;;;;;;;23.77;5.57;;;20.70;48.90;;;;;;4970994;28;86503;-73
2022/02/26 09:25:15;;;;;;;17.35;5.53;;;20.70;49.20;;;;;;4970979;28;85634;-72
2022/02/26 09:27:43;;;;;;;14.13;4.68;;;20.80;49.10;;;;;;4970090;28;86246;-72
2022/02/26 09:30:11;;;;;;;25.52;7.38;;;20.80;49.50;;;;;;4969229;28;90043;-71
2022/02/26 09:32:36;;;;;;;21.05;5.40;;;20.80;48.90;;;;;;4969685;28;86930;-72
2022/02/26 09:35:03;;;;;;;20.85;5.93;;;20.80;49.10;;;;;;4969868;28;86704;-71
2022/02/26 09:37:29;;;;;;;19.15;5.88;;;20.80;48.60;;;;;;4969250;28;86776;-71
2022/02/26 09:39:58;;;;;;;18.45;6.28;;;20.80;49.30;;;;;;4970813;28;86813;-71
2022/02/26 09:42:28;;;;;;;19.75;5.57;;;20.80;48.80;;;;;;4970498;28;86452;-73
2022/02/26 09:44:54;;;;;;;17.02;5.53;;;20.80;49.60;;;;;;4970763;28;86940;-71
2022/02/26 09:47:20;;;;;;;17.75;5.35;;;20.80;49.50;;;;;;4970149;28;86757;-72
2022/02/26 09:49:48;;;;;;;19.27;5.32;;;20.80;49.40;;;;;;4970930;28;86943;-72
2022/02/26 09:52:16;;;;;;;19.25;6.35;;;20.80;49.90;;;;;;4968941;22;87725;-82
2022/02/26 09:54:45;;;;;;;53.17;14.77;;;20.80;50.70;;;;;;4954607;28;85784;-80
2022/02/26 09:57:11;;;;;;;59.42;14.35;;;20.70;50.50;;;;;;4948904;28;87121;-79
2022/02/26 09:59:36;;;;;;;63.33;14.52;;;20.80;50.40;;;;;;4948927;28;86584;-80
2022/02/26 10:02:09;;;;;;;53.28;13.15;;;20.80;49.20;;;;;;4948471;28;87061;-79
2022/02/26 10:04:36;;;;;;;40.75;11.68;;;20.80;49.60;;;;;;4948565;28;86016;-79
2022/02/26 10:07:13;;;;;;;39.08;10.75;;;20.80;49.10;;;;;;4949337;28;86281;-80
2022/02/26 10:09:44;;;;;;;40.47;13.18;;;20.80;48.80;;;;;;4948982;28;86766;-79
2022/02/26 10:12:38;;;;;;;35.35;9.77;;;20.80;48.50;;;;;;4949044;28;86802;-83
2022/02/26 10:15:22;;;;;;;33.58;10.60;;;20.80;48.20;;;;;;4951510;28;86449;-82
2022/02/26 10:18:09;;;;;;;41.78;11.90;;;20.80;48.50;;;;;;4951411;28;86058;-79
2022/02/26 10:20:44;;;;;;;44.60;11.63;;;20.90;48.50;;;;;;4949603;28;86839;-80
2022/02/26 10:23:13;;;;;;;39.70;11.38;;;20.80;47.80;;;;;;4951812;28;86515;-79
2022/02/26 10:25:38;;;;;;;33.10;9.93;;;20.90;48.00;;;;;;4953833;28;86991;-78
2022/02/26 10:28:04;;;;;;;38.90;9.88;;;20.80;48.50;;;;;;4950483;28;86872;-78
2022/02/26 10:30:40;;;;;;;33.97;10.63;;;20.80;49.00;;;;;;4949990;28;86498;-79
2022/02/26 10:33:14;;;;;;;30.80;10.10;;;20.80;49.30;;;;;;4949196;28;86671;-82
2022/02/26 10:35:47;;;;;;;28.98;9.77;;;20.80;49.50;;;;;;4949116;28;86558;-78
2022/02/26 10:38:20;;;;;;;35.53;9.90;;;20.80;49.60;;;;;;4950700;28;85992;-80
2022/02/26 10:41:06;;;;;;;32.53;9.20;;;20.80;49.90;;;;;;4949080;28;89914;-79
2022/02/26 10:44:04;;;;;;;32.75;9.70;;;20.80;51.60;;;;;;4950090;28;86269;-80
2022/02/26 10:46:32;;;;;;;32.15;9.38;;;20.80;51.10;;;;;;4948755;28;86133;-80
2022/02/26 10:49:09;;;;;;;28.35;9.32;;;20.90;50.60;;;;;;4950591;28;86141;-79
2022/02/26 10:51:38;;;;;;;27.85;8.70;;;20.90;50.20;;;;;;4950130;28;87091;-80
2022/02/26 10:54:06;;;;;;;35.60;9.80;;;20.90;48.60;;;;;;4950589;28;86282;-80
2022/02/26 10:56:44;;;;;;;30.17;9.55;;;20.90;48.40;;;;;;4950681;28;86738;-80
2022/02/26 10:59:11;;;;;;;26.75;9.68;;;20.90;49.20;;;;;;4951275;28;86459;-78
2022/02/26 11:01:37;;;;;;;28.40;10.00;;;20.80;50.40;;;;;;4950287;28;86625;-83
2022/02/26 11:04:21;;;;;;;25.17;9.70;;;20.90;51.00;;;;;;4947410;28;87637;-78
2022/02/26 11:06:47;;;;;;;25.80;9.75;;;20.90;51.10;;;;;;4948710;28;86224;-80
2022/02/26 11:09:13;;;;;;;31.02;9.98;;;20.90;51.50;;;;;;4950752;28;87020;-79
2022/02/26 11:11:39;;;;;;;26.23;9.40;;;20.90;51.90;;;;;;4949147;28;86714;-78
2022/02/26 11:14:05;;;;;;;30.63;8.82;;;20.90;51.80;;;;;;4949224;28;85936;-79
2022/02/26 11:16:32;;;;;;;26.63;10.50;;;21.00;51.90;;;;;;4949999;28;86223;-79
2022/02/26 11:19:00;;;;;;;32.95;9.27;;;21.00;49.90;;;;;;4948659;28;86629;-84
2022/02/26 11:21:26;;;;;;;28.40;9.40;;;21.00;50.30;;;;;;4949963;28;86623;-81
2022/02/26 11:23:52;;;;;;;31.10;8.77;;;21.10;51.20;;;;;;4950444;28;85892;-79
2022/02/26 11:26:21;;;;;;;25.38;8.40;;;21.00;51.20;;;;;;4950172;28;86766;-81
2022/02/26 11:28:50;;;;;;;27.10;8.57;;;21.10;51.80;;;;;;4949739;28;86202;-79
2022/02/26 11:31:24;;;;;;;23.83;8.50;;;21.10;51.30;;;;;;4945911;28;86160;-84
2022/02/26 11:33:53;;;;;;;26.65;8.38;;;21.10;51.60;;;;;;4948681;28;86596;-82
2022/02/26 11:36:19;;;;;;;24.88;8.15;;;21.10;52.30;;;;;;4953281;28;86831;-81
2022/02/26 11:38:45;;;;;;;26.30;8.35;;;21.00;52.40;;;;;;4951878;28;86949;-82
2022/02/26 11:41:27;;;;;;;25.67;8.38;;;21.10;52.40;;;;;;4953593;28;87049;-84
2022/02/26 11:44:03;;;;;;;23.90;8.00;;;21.00;51.90;;;;;;4951319;28;88747;-83
2022/02/26 11:46:33;;;;;;;26.02;8.38;;;21.00;51.80;;;;;;4950998;28;86426;-84
2022/02/26 11:49:11;;;;;;;25.23;8.75;;;21.00;51.20;;;;;;4951305;28;85808;-83
2022/02/26 11:51:45;;;;;;;21.23;7.65;;;21.00;51.50;;;;;;4952974;28;86554;-84
2022/02/26 11:54:16;;;;;;;23.55;7.90;;;21.00;51.70;;;;;;4953516;28;86490;-84
2022/02/26 11:56:52;;;;;;;27.30;8.40;;;21.00;51.80;;;;;;4953007;28;87201;-81
2022/02/26 11:59:33;;;;;;;26.00;8.25;;;21.00;51.20;;;;;;4952619;28;86574;-80
2022/02/26 12:02:08;;;;;;;22.08;8.20;;;21.00;51.10;;;;;;4950242;28;86394;-81
2022/02/26 12:05:00;;;;;;;22.00;7.75;;;21.00;51.50;;;;;;4951156;28;86867;-83
2022/02/26 12:07:33;;;;;;;26.00;8.48;;;21.00;51.10;;;;;;4950138;28;85897;-81
2022/02/26 12:10:06;;;;;;;21.50;8.38;;;21.00;51.20;;;;;;4952103;28;85730;-79
2022/02/26 12:12:36;;;;;;;25.08;8.68;;;21.00;51.20;;;;;;4952619;28;86295;-80
2022/02/26 12:15:04;;;;;;;25.23;8.75;;;21.00;51.20;;;;;;4952299;28;86673;-81
2022/02/26 12:17:29;;;;;;;24.95;8.38;;;20.90;51.10;;;;;;4951940;28;86136;-81
2022/02/26 12:19:55;;;;;;;23.55;8.07;;;21.00;51.10;;;;;;4951071;28;86166;-82
2022/02/26 12:22:37;;;;;;;26.83;9.10;;;21.00;51.10;;;;;;4950687;28;89096;-83
2022/02/26 12:25:12;;;;;;;26.00;7.93;;;21.00;51.00;;;;;;4953038;28;85891;-81
2022/02/26 12:27:38;;;;;;;24.38;9.43;;;21.00;51.20;;;;;;4952599;28;86134;-84
2022/02/26 12:30:11;;;;;;;25.60;7.60;;;21.00;50.90;;;;;;4952545;28;86034;-81
2022/02/26 12:33:04;;;;;;;17.73;7.00;;;21.00;50.80;;;;;;4953002;28;86318;-81
2022/02/26 12:35:40;;;;;;;20.23;7.82;;;20.90;50.70;;;;;;4952544;28;88688;-82
2022/02/26 12:38:25;;;;;;;25.63;8.18;;;21.00;51.00;;;;;;4952994;28;86323;-79
2022/02/26 12:40:55;;;;;;;30.13;7.43;;;21.00;51.00;;;;;;4949529;28;86005;-79
2022/02/26 12:43:28;;;;;;;19.35;7.47;;;21.00;51.00;;;;;;4950212;28;89103;-82
2022/02/26 12:45:57;;;;;;;19.70;7.57;;;21.00;51.10;;;;;;4949959;28;88166;-80
2022/02/26 12:48:24;;;;;;;20.92;7.53;;;21.00;51.10;;;;;;4952312;28;86033;-83